Latest Weather Observations for Temora

IDN60801

Issued at 8:32 pm EST Wednesday 5 August 2015 (issued every 30 minutes, with the page automatically refreshed every 10 minutes)

About weather observations | Map of weather stations | Latest weather observations for NSW | Other Formats
Station Details ID: 073151 Name: TEMORA AIRPORT Lat: -34.43 Lon: 147.51 Height: 280.5 m
Data from the previous 72 hours. | See also: Recent months at Temora
Date/Time
EST
Temp
°C
App
Temp
°C
Dew
Point
Rel
Hum
%
Delta-T
°C
Wind Press
QNH
hPa
Press
MSL
hPa
Rain
since 9 am
mm
Dir
 
Spd
km/h
Gust
km/h
Spd
kts
Gust
kts
05/08:30pm 6.7 3.0 4.5 86 1.0 WSW 13 19 7 10 1016.3 1016.7 1.2
05/08:00pm 7.3 3.7 4.9 85 1.1 WSW 13 19 7 10 1016.0 1016.4 1.2
05/07:30pm 7.2 2.8 4.7 84 1.1 WSW 17 20 9 11 1015.7 1016.1 1.2
05/07:00pm 7.2 2.8 5.0 86 1.0 W 17 20 9 11 1015.6 1016.0 1.2
05/06:30pm 7.8 3.9 5.3 84 1.1 WSW 15 20 8 11 1015.4 1015.7 1.2
05/06:00pm 8.3 3.6 5.2 81 1.4 WSW 19 26 10 14 1015.0 1015.3 1.2
05/05:30pm 8.4 3.5 5.3 81 1.4 W 20 26 11 14 1014.4 1014.8 1.2
05/05:00pm 8.6 3.3 5.0 78 1.6 W 22 30 12 16 1014.0 1014.4 1.2
05/04:30pm 9.6 4.2 6.5 81 1.5 W 24 39 13 21 1014.0 1014.4 1.2
05/04:00pm 10.4 6.2 8.3 87 1.0 W 20 28 11 15 1013.8 1014.2 1.2
05/03:30pm 8.9 4.1 7.2 89 0.8 WNW 22 30 12 16 1013.8 1014.2 1.0
05/03:00pm 9.4 4.8 8.2 92 0.6 W 22 33 12 18 1014.0 1014.4 0.8
05/02:30pm 9.1 4.0 7.5 90 0.8 W 24 39 13 21 1013.9 1014.3 0.8
05/02:00pm 9.0 3.4 7.0 87 1.0 WNW 26 39 14 21 1014.0 1014.4 0.6
05/01:30pm 8.4 3.1 6.9 90 0.7 WNW 24 33 13 18 1014.3 1014.7 0.4
05/01:00pm 8.7 3.1 7.3 91 0.7 W 26 35 14 19 1014.6 1015.0 0.4
05/12:30pm 8.4 3.1 6.7 89 0.8 W 24 33 13 18 1015.1 1015.4 0.4
05/12:00pm 8.1 3.2 6.9 92 0.6 W 22 33 12 18 1015.6 1016.0 0.4
05/11:30am 8.1 3.3 7.2 94 0.4 WNW 22 32 12 17 1016.1 1016.5 0.2
05/11:00am 7.2 2.6 6.5 95 0.3 WNW 20 28 11 15 1016.3 1016.7 0.2
05/10:30am 6.8 1.7 6.1 95 0.3 WNW 22 33 12 18 1016.5 1016.9 0.2
05/10:00am 6.6 2.1 6.0 96 0.3 NW 19 30 10 16 1016.7 1017.1 0.2
05/09:30am 6.4 1.8 5.7 95 0.3 NW 19 26 10 14 1016.7 1017.1 0.2
05/09:00am 6.8 1.8 4.8 87 0.9 NW 20 32 11 17 1016.9 1017.3 0.2
05/08:30am 6.4 1.5 4.2 86 1.0 NW 19 26 10 14 1017.0 1017.4 0.2
05/08:00am 5.8 0.9 4.0 88 0.8 NW 19 28 10 15 1017.3 1017.7 0.2
05/07:30am 5.0 0.7 3.3 89 0.7 NW 15 19 8 10 1017.2 1017.6 0.2
05/07:00am 4.6 0.2 2.8 88 0.7 NW 15 20 8 11 1017.1 1017.5 0.2
05/06:30am 5.2 0.5 2.9 85 1.0 NW 17 20 9 11 1017.3 1017.7 0.2
05/06:00am 5.0 0.3 2.9 86 0.9 NW 17 20 9 11 1017.3 1017.7 0.2
05/05:30am 5.0 0.6 2.5 84 1.0 NW 15 20 8 11 1017.6 1018.0 0.2
05/05:00am 4.3 1.9 2.3 87 0.8 WNW 4 7 2 4 1017.7 1018.1 0.2
05/04:30am 3.9 0.9 2.1 88 0.7 N 7 9 4 5 1018.1 1018.5 0.2
05/04:00am 4.5 1.2 2.2 85 0.9 NW 9 11 5 6 1018.2 1018.6 0.2
05/03:30am 4.6 1.3 2.3 85 0.9 NW 9 11 5 6 1018.8 1019.2 0.2
05/03:00am 4.7 1.0 2.1 83 1.1 NW 11 15 6 8 1019.1 1019.5 0.2
05/02:30am 4.3 0.8 1.5 82 1.1 WNW 9 13 5 7 1019.4 1019.8 0.2
05/02:00am 4.0 0.9 1.4 83 1.0 NW 7 9 4 5 1019.8 1020.2 0.2
05/01:30am 4.8 1.8 2.3 84 1.0 NW 7 9 4 5 1020.0 1020.4 0.2
05/01:00am 4.8 1.5 2.2 83 1.1 NNW 9 11 5 6 1020.1 1020.5 0.2
05/12:30am 4.9 1.2 2.1 82 1.1 NW 11 13 6 7 1020.4 1020.8 0.2
05/12:00am 5.0 1.2 1.8 80 1.3 NW 11 13 6 7 1020.8 1021.2 0.2
 
Date/Time
EST
Temp
°C
App
Temp
°C
Dew
Point
Rel
Hum
%
Delta-T
°C
Wind Press
QNH
hPa
Press
MSL
hPa
Rain
since 9 am
mm
Dir
 
Spd
km/h
Gust
km/h
Spd
kts
Gust
kts
04/11:30pm 4.8 2.0 2.2 83 1.1 NW 6 7 3 4 1021.1 1021.5 0.2
04/11:00pm 4.7 1.7 2.2 84 1.0 NNW 7 9 4 5 1021.2 1021.6 0.2
04/10:30pm 4.8 3.2 2.2 83 1.1 CALM 0 0 0 0 1021.5 1022.0 0.2
04/10:00pm 4.9 2.1 1.9 81 1.2 NW 6 7 3 4 1021.8 1022.3 0.2
04/09:30pm 4.7 3.0 1.9 82 1.1 CALM 0 0 0 0 1021.9 1022.4 0.2
04/09:00pm 4.9 2.8 1.4 78 1.4 NW 2 6 1 3 1022.1 1022.6 0.2
04/08:30pm 4.8 2.4 2.2 83 1.1 NW 4 6 2 3 1022.3 1022.7 0.2
04/08:00pm 5.0 2.0 2.0 81 1.2 NW 7 7 4 4 1022.4 1022.8 0.2
04/07:30pm 5.3 3.1 1.1 74 1.7 W 2 6 1 3 1022.5 1022.9 0.2
04/07:00pm 5.6 2.5 0.0 67 2.2 WSW 6 9 3 5 1022.5 1022.9 0.2
04/06:30pm 5.7 2.0 -0.1 66 2.3 SW 9 11 5 6 1022.6 1023.0 0.2
04/06:00pm 5.9 2.2 -0.2 65 2.4 SW 9 13 5 7 1022.4 1022.8 0.2
04/05:30pm 6.2 0.9 -0.5 62 2.6 WSW 17 22 9 12 1022.1 1022.6 0.2
04/05:00pm 6.3 1.8 0.0 64 2.5 WSW 13 20 7 11 1022.0 1022.5 0.2
04/04:30pm 6.5 0.8 0.4 65 2.4 W 20 28 11 15 1022.0 1022.5 0.2
04/04:00pm 6.8 1.6 0.3 63 2.6 WSW 17 22 9 12 1022.0 1022.5 0.2
04/03:30pm 7.1 2.3 0.3 62 2.7 WSW 15 20 8 11 1022.0 1022.5 0.2
04/03:00pm 7.4 2.6 0.2 60 2.9 WSW 15 24 8 13 1022.3 1022.7 0.2
04/02:30pm 7.6 2.5 0.6 61 2.8 WSW 17 20 9 11 1022.4 1022.8 0.2
04/02:00pm 7.5 2.3 0.0 59 3.0 SW 17 24 9 13 1022.7 1023.1 0.2
04/01:30pm 8.1 2.6 0.3 58 3.1 WSW 19 30 10 16 1022.8 1023.2 0.2
04/01:00pm 7.8 2.0 -1.4 52 3.5 WSW 19 28 10 15 1023.0 1023.4 0.2
04/12:30pm 8.1 2.4 -1.1 52 3.6 WSW 19 28 10 15 1023.5 1023.9 0.2
04/12:00pm 8.1 2.9 -0.1 56 3.3 SW 17 28 9 15 1023.7 1024.1 0.2
04/11:30am 8.0 2.4 -0.2 56 3.3 WSW 19 24 10 13 1024.4 1024.9 0.2
04/11:00am 7.8 2.6 0.3 59 3.0 SW 17 22 9 12 1024.7 1025.2 0.2
04/10:30am 7.4 2.3 1.0 64 2.6 WSW 17 26 9 14 1024.8 1025.3 0.0
04/10:00am 6.5 2.3 1.6 71 2.0 WSW 13 17 7 9 1024.8 1025.3 0.0
04/09:30am 4.7 1.4 2.2 84 1.0 WSW 9 13 5 7 1024.8 1025.3 0.0
04/09:00am 2.5 -0.1 1.2 91 0.5 WSW 4 7 2 4 1024.7 1025.2 0.0
04/08:30am 1.2 -0.6 0.9 98 0.1 CALM 0 0 0 0 1024.8 1025.3 0.0
04/08:00am -0.6 -2.7 -0.7 99 0.0 CALM 0 0 0 0 1024.4 1024.9 0.0
04/07:30am -2.7 -5.9 -3.1 97 0.0 SSW 4 9 2 5 1024.0 1024.4 0.0
04/07:00am -2.2 -5.9 -2.5 98 0.0 SW 7 9 4 5 1023.9 1024.3 0.0
04/06:30am -2.9 -5.3 -3.3 97 0.0 CALM 0 0 0 0 1023.8 1024.2 0.0
04/06:00am -2.0 -4.3 -2.3 98 0.0 CALM 0 0 0 0 1023.5 1023.9 0.0
04/05:30am -2.6 -6.1 -3.0 97 0.0 WSW 6 7 3 4 1023.4 1023.8 0.0
04/05:00am -1.4 -4.8 -1.7 98 0.0 SSW 6 6 3 3 1023.3 1023.7 0.0
04/04:30am -0.7 -3.9 -0.8 99 0.0 SW 6 9 3 5 1023.2 1023.6 0.0
04/04:00am -1.2 -4.7 -1.5 98 0.0 SW 7 9 4 5 1023.1 1023.5 0.0
04/03:30am -0.7 -4.1 -0.8 99 0.0 SSW 7 9 4 5 1023.2 1023.6 0.0
04/03:00am -1.1 -4.6 -1.4 98 0.1 SW 7 9 4 5 1023.4 1023.8 0.0
04/02:30am -1.3 -4.6 -1.6 98 0.0 SW 6 9 3 5 1023.6 1024.0 0.0
04/02:00am -1.2 -3.8 -1.6 97 0.1 WSW 2 6 1 3 1023.6 1024.0 0.0
04/01:30am -0.2 -3.0 -0.5 98 0.1 WSW 4 9 2 5 1023.5 1023.9 0.0
04/01:00am -0.3 -3.5 -0.7 97 0.1 W 6 7 3 4 1023.7 1024.1 0.0
04/12:30am 0.2 -3.0 -0.2 97 0.1 WNW 6 7 3 4 1023.8 1024.2 0.0
04/12:00am 0.6 -2.1 0.0 96 0.2 NNW 4 7 2 4 1023.7 1024.1 0.0
 
Date/Time
EST
Temp
°C
App
Temp
°C
Dew
Point
Rel
Hum
%
Delta-T
°C
Wind Press
QNH
hPa
Press
MSL
hPa
Rain
since 9 am
mm
Dir
 
Spd
km/h
Gust
km/h
Spd
kts
Gust
kts
03/11:30pm 1.1 -1.2 0.4 95 0.3 NW 2 7 1 4 1023.9 1024.3 0.0
03/11:00pm 1.7 -1.3 0.8 94 0.3 NW 6 7 3 4 1023.8 1024.2 0.0
03/10:30pm 2.0 0.1 0.7 91 0.5 CALM 0 0 0 0 1023.6 1024.0 0.0
03/10:00pm 3.8 2.2 2.3 90 0.6 CALM 0 0 0 0 1023.6 1024.0 0.0
03/09:30pm 4.1 1.3 2.3 88 0.7 WSW 6 9 3 5 1023.4 1023.8 0.0
03/09:00pm 5.0 2.1 2.5 84 1.0 WSW 7 11 4 6 1023.3 1023.7 0.0
03/08:30pm 5.7 2.5 3.0 83 1.1 WSW 9 13 5 7 1023.1 1023.5 0.0
03/08:00pm 6.5 3.0 3.5 81 1.3 WSW 11 17 6 9 1022.9 1023.3 0.0
03/07:30pm 6.6 3.2 3.9 83 1.2 SW 11 15 6 8 1022.7 1023.1 0.0
03/07:00pm 6.7 2.1 3.9 82 1.2 SW 17 24 9 13 1022.4 1022.8 0.0
03/06:30pm 7.2 3.1 4.5 83 1.2 SW 15 22 8 12 1021.9 1022.4 0.0
03/06:00pm 7.2 2.7 4.2 81 1.3 SW 17 22 9 12 1021.4 1021.9 0.0
03/05:30pm 7.5 3.4 4.3 80 1.4 WSW 15 24 8 13 1021.1 1021.5 0.0
03/05:00pm 7.7 2.9 4.7 81 1.3 SW 19 28 10 15 1020.6 1021.0 0.0
03/04:30pm 8.6 1.7 4.8 77 1.7 SSW 30 43 16 23 1020.2 1020.6 0.0
03/04:00pm 11.1 4.6 4.6 64 3.0 WSW 28 41 15 22 1019.6 1020.0 0.0
03/03:30pm 10.9 6.2 5.2 68 2.6 WSW 19 33 10 18 1019.5 1019.9 0.0
03/03:00pm 9.2 2.6 4.0 70 2.3 WSW 28 39 15 21 1019.6 1020.0 0.0
03/02:30pm 10.7 4.0 5.7 71 2.3 WSW 30 39 16 21 1019.0 1019.4 0.0
03/02:00pm 10.0 3.3 5.6 74 2.0 W 30 44 16 24 1019.1 1019.5 0.0
03/01:30pm 10.3 3.5 5.3 71 2.3 WSW 30 43 16 23 1019.0 1019.4 0.0
03/01:00pm 10.3 4.4 5.7 73 2.1 WSW 26 39 14 21 1019.0 1019.4 0.0
03/12:32pm 10.0 3.6 5.4 73 2.1 WSW 28 46 15 25 1019.2 1019.6 0.0
03/12:30pm 10.1 3.4 5.5 73 2.1 WSW 30 46 16 25 1019.2 1019.6 0.0
03/12:00pm 10.5 3.4 5.3 70 2.4 W 32 44 17 24 1019.4 1019.8 0.0
03/11:30am 10.6 4.2 5.4 70 2.4 W 28 39 15 21 1019.6 1020.0 0.0
03/11:00am 10.6 3.8 4.9 68 2.6 W 30 39 16 21 1019.6 1020.0 0.0
03/10:30am 10.4 4.0 5.4 71 2.3 W 28 43 15 23 1019.9 1020.3 0.0
03/10:00am 10.1 4.8 6.8 80 1.6 W 24 39 13 21 1020.0 1020.4 0.0
03/09:30am 8.9 4.2 6.2 83 1.3 WNW 20 30 11 16 1019.9 1020.3 0.0
03/09:00am 8.5 3.9 6.3 86 1.0 WNW 20 30 11 16 1020.0 1020.4 0.2
03/08:30am 8.2 4.1 6.2 87 0.9 WNW 17 20 9 11 1020.0 1020.4 0.2
03/08:00am 7.6 4.2 6.1 90 0.7 WNW 13 19 7 10 1019.9 1020.3 0.2
03/07:30am 7.5 3.7 6.0 90 0.7 W 15 20 8 11 1019.6 1020.0 0.2
03/07:00am 7.3 3.5 5.8 90 0.7 W 15 19 8 10 1019.5 1019.9 0.2
03/06:30am 7.4 3.2 5.9 90 0.7 W 17 26 9 14 1019.3 1019.7 0.2
03/06:00am 7.7 3.4 5.3 85 1.1 W 17 20 9 11 1019.1 1019.5 0.2
03/05:30am 7.5 3.9 5.1 85 1.1 W 13 17 7 9 1019.1 1019.5 0.2
03/05:00am 7.2 4.0 4.9 85 1.0 WNW 11 13 6 7 1019.0 1019.4 0.2
03/04:30am 7.4 4.5 4.9 84 1.1 WNW 9 13 5 7 1018.8 1019.2 0.2
03/04:00am 7.4 4.5 4.7 83 1.2 WNW 9 13 5 7 1019.0 1019.4 0.2
03/03:30am 7.6 4.7 4.6 81 1.3 WNW 9 13 5 7 1019.0 1019.4 0.2
03/03:00am 6.9 4.4 4.6 85 1.0 NW 7 13 4 7 1019.2 1019.6 0.2
03/02:30am 6.5 3.2 4.8 89 0.8 NNW 11 13 6 7 1019.4 1019.8 0.2
03/02:00am 6.5 3.2 4.8 89 0.8 NNW 11 13 6 7 1019.5 1019.9 0.2
03/01:30am 6.4 3.5 4.7 89 0.8 NW 9 9 5 5 1019.6 1020.0 0.2
03/01:00am 6.5 3.6 4.5 87 0.9 NW 9 11 5 6 1019.8 1020.2 0.2
03/12:30am 6.1 3.2 4.4 89 0.7 WNW 9 13 5 7 1019.9 1020.3 0.2
03/12:00am 5.3 2.2 3.5 88 0.8 WNW 9 13 5 7 1020.3 1020.7 0.2
 
Date/Time
EST
Temp
°C
App
Temp
°C
Dew
Point
Rel
Hum
%
Delta-T
°C
Wind Press
QNH
hPa
Press
MSL
hPa
Rain
since 9 am
mm
Dir
 
Spd
km/h
Gust
km/h
Spd
kts
Gust
kts
02/11:30pm 5.7 2.6 3.7 87 0.9 WNW 9 13 5 7 1020.3 1020.7 0.2
02/11:00pm 6.5 3.1 4.2 85 1.0 WNW 11 13 6 7 1020.4 1020.8 0.2
02/10:30pm 6.8 3.9 4.6 86 1.0 WNW 9 11 5 6 1020.4 1020.8 0.2
02/10:00pm 6.3 3.8 4.6 89 0.7 NW 7 9 4 5 1020.5 1020.9 0.2
02/09:30pm 5.5 3.1 4.2 91 0.6 NW 6 7 3 4 1020.4 1020.8 0.2
02/09:00pm 6.4 4.6 5.2 92 0.5 N 4 9 2 5 1020.4 1020.8 0.2

Other Formats:

Comma delimited format used in spreadsheet applications
http://www.bom.gov.au/fwo/IDN60801/IDN60801.95722.axf

JavaScript Object Notation format (JSON) in row-major order
http://www.bom.gov.au/fwo/IDN60801/IDN60801.95722.json